sensor_id;sensor_type;location;lat;lon;timestamp;P1;durP1;ratioP1;P2;durP2;ratioP2
72319;SDS011;60269;52.502;16.732;2023-04-01T00:01:38;9.60;;;3.00;;
72319;SDS011;60269;52.502;16.732;2023-04-01T00:05:10;10.35;;;3.10;;
72319;SDS011;60269;52.502;16.732;2023-04-01T00:08:43;8.77;;;2.85;;
72319;SDS011;60269;52.502;16.732;2023-04-01T00:12:16;9.85;;;3.05;;
72319;SDS011;60269;52.502;16.732;2023-04-01T00:15:48;9.27;;;2.67;;
72319;SDS011;60269;52.502;16.732;2023-04-01T00:19:20;10.52;;;3.75;;
72319;SDS011;60269;52.502;16.732;2023-04-01T00:22:53;8.60;;;2.65;;
72319;SDS011;60269;52.502;16.732;2023-04-01T00:26:25;7.20;;;2.20;;
72319;SDS011;60269;52.502;16.732;2023-04-01T00:29:58;8.80;;;2.45;;
72319;SDS011;60269;52.502;16.732;2023-04-01T00:33:30;7.18;;;2.30;;
72319;SDS011;60269;52.502;16.732;2023-04-01T00:37:02;8.00;;;1.90;;
72319;SDS011;60269;52.502;16.732;2023-04-01T00:40:36;7.03;;;2.35;;
72319;SDS011;60269;52.502;16.732;2023-04-01T00:44:15;11.15;;;2.88;;
72319;SDS011;60269;52.502;16.732;2023-04-01T00:47:53;8.80;;;2.85;;
72319;SDS011;60269;52.502;16.732;2023-04-01T00:51:27;8.33;;;2.47;;
72319;SDS011;60269;52.502;16.732;2023-04-01T00:55:01;11.93;;;3.83;;
72319;SDS011;60269;52.502;16.732;2023-04-01T00:58:37;9.52;;;2.83;;
72319;SDS011;60269;52.502;16.732;2023-04-01T01:02:13;9.87;;;3.23;;
72319;SDS011;60269;52.502;16.732;2023-04-01T01:16:58;13.20;;;3.60;;
72319;SDS011;60269;52.502;16.732;2023-04-01T01:24:26;8.65;;;3.28;;
72319;SDS011;60269;52.502;16.732;2023-04-01T01:39:19;10.70;;;4.20;;
72319;SDS011;60269;52.502;16.732;2023-04-01T01:42:53;13.73;;;3.78;;
72319;SDS011;60269;52.502;16.732;2023-04-01T01:46:28;12.05;;;3.92;;
72319;SDS011;60269;52.502;16.732;2023-04-01T01:50:02;11.15;;;4.30;;
72319;SDS011;60269;52.502;16.732;2023-04-01T01:53:36;9.97;;;3.87;;
72319;SDS011;60269;52.502;16.732;2023-04-01T01:57:09;12.38;;;4.32;;
72319;SDS011;60269;52.502;16.732;2023-04-01T02:00:43;12.82;;;4.47;;
72319;SDS011;60269;52.502;16.732;2023-04-01T02:04:17;10.30;;;4.10;;
72319;SDS011;60269;52.502;16.732;2023-04-01T02:08:05;10.98;;;3.97;;
72319;SDS011;60269;52.502;16.732;2023-04-01T02:15:28;12.27;;;4.03;;
72319;SDS011;60269;52.502;16.732;2023-04-01T02:19:04;12.13;;;4.05;;
72319;SDS011;60269;52.502;16.732;2023-04-01T02:22:43;10.82;;;3.92;;
72319;SDS011;60269;52.502;16.732;2023-04-01T02:26:19;14.45;;;4.07;;
72319;SDS011;60269;52.502;16.732;2023-04-01T02:29:52;12.57;;;4.33;;
72319;SDS011;60269;52.502;16.732;2023-04-01T02:33:24;15.95;;;4.63;;
72319;SDS011;60269;52.502;16.732;2023-04-01T02:36:57;10.02;;;4.32;;
72319;SDS011;60269;52.502;16.732;2023-04-01T02:40:29;12.67;;;4.30;;
72319;SDS011;60269;52.502;16.732;2023-04-01T02:44:01;11.43;;;4.05;;
72319;SDS011;60269;52.502;16.732;2023-04-01T02:47:33;13.95;;;4.07;;
72319;SDS011;60269;52.502;16.732;2023-04-01T02:51:06;12.00;;;4.23;;
72319;SDS011;60269;52.502;16.732;2023-04-01T02:54:38;13.55;;;4.25;;
72319;SDS011;60269;52.502;16.732;2023-04-01T02:58:10;13.13;;;4.03;;
72319;SDS011;60269;52.502;16.732;2023-04-01T03:01:42;11.48;;;4.40;;
72319;SDS011;60269;52.502;16.732;2023-04-01T03:05:14;12.27;;;4.07;;
72319;SDS011;60269;52.502;16.732;2023-04-01T03:08:46;11.80;;;4.45;;
72319;SDS011;60269;52.502;16.732;2023-04-01T03:12:19;13.32;;;4.55;;
72319;SDS011;60269;52.502;16.732;2023-04-01T03:15:51;12.80;;;4.13;;
72319;SDS011;60269;52.502;16.732;2023-04-01T03:19:23;12.10;;;4.13;;
72319;SDS011;60269;52.502;16.732;2023-04-01T03:22:55;11.00;;;4.45;;
72319;SDS011;60269;52.502;16.732;2023-04-01T03:26:27;11.00;;;4.78;;
72319;SDS011;60269;52.502;16.732;2023-04-01T03:29:59;10.03;;;4.30;;
72319;SDS011;60269;52.502;16.732;2023-04-01T03:33:32;10.93;;;3.95;;
72319;SDS011;60269;52.502;16.732;2023-04-01T03:37:04;11.13;;;3.58;;
72319;SDS011;60269;52.502;16.732;2023-04-01T03:40:37;11.53;;;4.33;;
72319;SDS011;60269;52.502;16.732;2023-04-01T03:44:14;12.27;;;4.05;;
72319;SDS011;60269;52.502;16.732;2023-04-01T03:47:46;13.15;;;4.55;;
72319;SDS011;60269;52.502;16.732;2023-04-01T03:51:18;12.23;;;4.93;;
72319;SDS011;60269;52.502;16.732;2023-04-01T03:54:51;10.80;;;4.17;;
72319;SDS011;60269;52.502;16.732;2023-04-01T03:58:22;11.45;;;4.45;;
72319;SDS011;60269;52.502;16.732;2023-04-01T04:01:55;11.13;;;4.18;;
72319;SDS011;60269;52.502;16.732;2023-04-01T04:05:27;12.77;;;4.90;;
72319;SDS011;60269;52.502;16.732;2023-04-01T04:09:00;13.27;;;4.72;;
72319;SDS011;60269;52.502;16.732;2023-04-01T04:12:32;14.93;;;5.18;;
72319;SDS011;60269;52.502;16.732;2023-04-01T04:16:07;13.83;;;5.50;;
72319;SDS011;60269;52.502;16.732;2023-04-01T04:19:42;13.87;;;4.90;;
72319;SDS011;60269;52.502;16.732;2023-04-01T04:23:14;15.02;;;5.60;;
72319;SDS011;60269;52.502;16.732;2023-04-01T04:26:46;13.23;;;5.70;;
72319;SDS011;60269;52.502;16.732;2023-04-01T04:30:18;18.17;;;6.03;;
72319;SDS011;60269;52.502;16.732;2023-04-01T04:33:50;15.60;;;5.72;;
72319;SDS011;60269;52.502;16.732;2023-04-01T04:37:23;14.88;;;5.80;;
72319;SDS011;60269;52.502;16.732;2023-04-01T04:40:55;14.33;;;5.87;;
72319;SDS011;60269;52.502;16.732;2023-04-01T04:44:28;13.63;;;5.57;;
72319;SDS011;60269;52.502;16.732;2023-04-01T04:47:59;16.75;;;6.32;;
72319;SDS011;60269;52.502;16.732;2023-04-01T04:51:32;13.73;;;5.68;;
72319;SDS011;60269;52.502;16.732;2023-04-01T04:55:07;13.87;;;5.77;;
72319;SDS011;60269;52.502;16.732;2023-04-01T04:58:39;15.27;;;6.10;;
72319;SDS011;60269;52.502;16.732;2023-04-01T05:02:11;14.80;;;6.03;;
72319;SDS011;60269;52.502;16.732;2023-04-01T05:05:50;13.87;;;4.90;;
72319;SDS011;60269;52.502;16.732;2023-04-01T05:09:24;13.50;;;5.57;;
72319;SDS011;60269;52.502;16.732;2023-04-01T05:12:56;15.52;;;5.55;;
72319;SDS011;60269;52.502;16.732;2023-04-01T05:16:28;13.13;;;4.67;;
72319;SDS011;60269;52.502;16.732;2023-04-01T05:20:03;16.92;;;5.05;;
72319;SDS011;60269;52.502;16.732;2023-04-01T05:23:36;13.35;;;4.22;;
72319;SDS011;60269;52.502;16.732;2023-04-01T05:27:09;13.82;;;5.13;;
72319;SDS011;60269;52.502;16.732;2023-04-01T05:30:41;15.23;;;5.33;;
72319;SDS011;60269;52.502;16.732;2023-04-01T05:34:15;19.88;;;5.97;;
72319;SDS011;60269;52.502;16.732;2023-04-01T05:37:47;14.68;;;5.05;;
72319;SDS011;60269;52.502;16.732;2023-04-01T05:41:21;12.60;;;4.20;;
72319;SDS011;60269;52.502;16.732;2023-04-01T05:44:53;11.73;;;4.13;;
72319;SDS011;60269;52.502;16.732;2023-04-01T05:48:27;13.30;;;3.88;;
72319;SDS011;60269;52.502;16.732;2023-04-01T05:51:58;13.23;;;5.00;;
72319;SDS011;60269;52.502;16.732;2023-04-01T05:55:31;11.48;;;4.10;;
72319;SDS011;60269;52.502;16.732;2023-04-01T05:59:03;13.82;;;4.70;;
72319;SDS011;60269;52.502;16.732;2023-04-01T06:02:36;13.05;;;4.68;;
72319;SDS011;60269;52.502;16.732;2023-04-01T06:06:43;13.20;;;4.40;;
72319;SDS011;60269;52.502;16.732;2023-04-01T06:10:17;14.57;;;4.63;;
72319;SDS011;60269;52.502;16.732;2023-04-01T06:29:24;13.63;;;5.60;;
72319;SDS011;60269;52.502;16.732;2023-04-01T06:40:33;16.90;;;6.28;;
72319;SDS011;60269;52.502;16.732;2023-04-01T06:44:46;23.60;;;7.93;;
72319;SDS011;60269;52.502;16.732;2023-04-01T06:49:02;19.45;;;7.47;;
72319;SDS011;60269;52.502;16.732;2023-04-01T06:56:58;15.17;;;5.90;;
72319;SDS011;60269;52.502;16.732;2023-04-01T07:00:41;11.70;;;4.95;;
72319;SDS011;60269;52.502;16.732;2023-04-01T07:04:20;12.23;;;4.47;;
72319;SDS011;60269;52.502;16.732;2023-04-01T07:07:55;8.77;;;3.30;;
72319;SDS011;60269;52.502;16.732;2023-04-01T07:11:31;12.40;;;3.67;;
72319;SDS011;60269;52.502;16.732;2023-04-01T07:15:19;12.20;;;3.88;;
72319;SDS011;60269;52.502;16.732;2023-04-01T07:18:58;10.98;;;4.50;;
72319;SDS011;60269;52.502;16.732;2023-04-01T07:22:41;14.60;;;4.70;;
72319;SDS011;60269;52.502;16.732;2023-04-01T07:26:18;13.77;;;5.45;;
72319;SDS011;60269;52.502;16.732;2023-04-01T07:29:55;16.83;;;6.70;;
72319;SDS011;60269;52.502;16.732;2023-04-01T07:37:42;18.80;;;7.10;;
72319;SDS011;60269;52.502;16.732;2023-04-01T07:41:49;24.38;;;8.82;;
72319;SDS011;60269;52.502;16.732;2023-04-01T07:49:55;15.23;;;5.80;;
72319;SDS011;60269;52.502;16.732;2023-04-01T07:57:50;15.43;;;5.00;;
72319;SDS011;60269;52.502;16.732;2023-04-01T08:05:27;13.70;;;4.60;;
72319;SDS011;60269;52.502;16.732;2023-04-01T08:13:30;14.70;;;5.78;;
72319;SDS011;60269;52.502;16.732;2023-04-01T08:17:20;12.30;;;5.55;;
72319;SDS011;60269;52.502;16.732;2023-04-01T08:21:21;13.37;;;4.63;;
72319;SDS011;60269;52.502;16.732;2023-04-01T08:24:57;15.98;;;5.50;;
72319;SDS011;60269;52.502;16.732;2023-04-01T08:32:10;13.77;;;4.53;;
72319;SDS011;60269;52.502;16.732;2023-04-01T08:35:51;13.70;;;4.32;;
72319;SDS011;60269;52.502;16.732;2023-04-01T08:39:29;13.95;;;4.82;;
72319;SDS011;60269;52.502;16.732;2023-04-01T08:51:05;16.77;;;5.80;;
72319;SDS011;60269;52.502;16.732;2023-04-01T09:06:58;16.40;;;5.97;;
72319;SDS011;60269;52.502;16.732;2023-04-01T09:22:21;16.67;;;5.78;;
72319;SDS011;60269;52.502;16.732;2023-04-01T09:30:32;16.23;;;5.87;;
72319;SDS011;60269;52.502;16.732;2023-04-01T09:53:24;16.58;;;5.93;;
72319;SDS011;60269;52.502;16.732;2023-04-01T10:21:32;22.10;;;7.50;;
72319;SDS011;60269;52.502;16.732;2023-04-01T10:41:16;22.00;;;7.90;;
72319;SDS011;60269;52.502;16.732;2023-04-01T10:57:11;19.93;;;6.83;;
72319;SDS011;60269;52.502;16.732;2023-04-01T11:01:22;20.40;;;7.90;;
72319;SDS011;60269;52.502;16.732;2023-04-01T11:20:56;17.40;;;7.85;;
72319;SDS011;60269;52.502;16.732;2023-04-01T11:28:38;20.95;;;9.02;;
72319;SDS011;60269;52.502;16.732;2023-04-01T11:32:39;18.38;;;8.02;;
72319;SDS011;60269;52.502;16.732;2023-04-01T11:40:25;17.58;;;7.50;;
72319;SDS011;60269;52.502;16.732;2023-04-01T11:51:59;20.73;;;8.73;;
72319;SDS011;60269;52.502;16.732;2023-04-01T12:11:47;14.50;;;6.38;;
72319;SDS011;60269;52.502;16.732;2023-04-01T12:19:29;13.57;;;5.97;;
72319;SDS011;60269;52.502;16.732;2023-04-01T12:23:34;9.95;;;4.35;;
72319;SDS011;60269;52.502;16.732;2023-04-01T12:35:15;11.73;;;4.80;;
72319;SDS011;60269;52.502;16.732;2023-04-01T13:02:30;11.55;;;4.88;;
72319;SDS011;60269;52.502;16.732;2023-04-01T13:25:51;9.90;;;4.80;;
72319;SDS011;60269;52.502;16.732;2023-04-01T13:29:49;9.23;;;4.25;;
72319;SDS011;60269;52.502;16.732;2023-04-01T13:33:46;9.13;;;3.78;;
72319;SDS011;60269;52.502;16.732;2023-04-01T13:52:23;9.23;;;3.33;;
72319;SDS011;60269;52.502;16.732;2023-04-01T14:07:14;9.77;;;3.80;;
72319;SDS011;60269;52.502;16.732;2023-04-01T14:30:21;11.52;;;4.90;;
72319;SDS011;60269;52.502;16.732;2023-04-01T14:34:32;9.77;;;4.00;;
72319;SDS011;60269;52.502;16.732;2023-04-01T14:50:05;11.82;;;4.82;;
72319;SDS011;60269;52.502;16.732;2023-04-01T15:36:16;12.68;;;4.47;;
72319;SDS011;60269;52.502;16.732;2023-04-01T15:48:31;11.80;;;4.70;;
72319;SDS011;60269;52.502;16.732;2023-04-01T16:15:41;12.43;;;5.03;;
72319;SDS011;60269;52.502;16.732;2023-04-01T16:19:37;10.15;;;4.65;;
72319;SDS011;60269;52.502;16.732;2023-04-01T16:31:03;10.40;;;4.43;;
72319;SDS011;60269;52.502;16.732;2023-04-01T16:34:43;12.83;;;4.67;;
72319;SDS011;60269;52.502;16.732;2023-04-01T16:50:19;14.53;;;6.40;;
72319;SDS011;60269;52.502;16.732;2023-04-01T16:54:05;16.70;;;7.57;;
72319;SDS011;60269;52.502;16.732;2023-04-01T16:58:18;12.95;;;5.93;;
72319;SDS011;60269;52.502;16.732;2023-04-01T17:01:57;17.90;;;6.77;;
72319;SDS011;60269;52.502;16.732;2023-04-01T17:05:39;14.45;;;6.13;;
72319;SDS011;60269;52.502;16.732;2023-04-01T17:37:19;15.32;;;5.57;;
72319;SDS011;60269;52.502;16.732;2023-04-01T17:41:25;11.57;;;5.13;;
72319;SDS011;60269;52.502;16.732;2023-04-01T17:45:08;15.63;;;5.00;;
72319;SDS011;60269;52.502;16.732;2023-04-01T17:56:00;9.40;;;4.07;;
72319;SDS011;60269;52.502;16.732;2023-04-01T18:07:41;10.17;;;3.50;;
72319;SDS011;60269;52.502;16.732;2023-04-01T18:18:58;7.53;;;2.73;;
72319;SDS011;60269;52.502;16.732;2023-04-01T18:22:45;10.68;;;2.88;;
72319;SDS011;60269;52.502;16.732;2023-04-01T18:26:29;6.38;;;2.30;;
72319;SDS011;60269;52.502;16.732;2023-04-01T18:38:33;10.30;;;3.85;;
72319;SDS011;60269;52.502;16.732;2023-04-01T18:46:30;10.17;;;3.60;;
72319;SDS011;60269;52.502;16.732;2023-04-01T18:50:41;8.48;;;3.60;;
72319;SDS011;60269;52.502;16.732;2023-04-01T19:02:38;11.40;;;4.72;;
72319;SDS011;60269;52.502;16.732;2023-04-01T19:06:23;11.30;;;3.85;;
72319;SDS011;60269;52.502;16.732;2023-04-01T19:10:07;13.17;;;4.87;;
72319;SDS011;60269;52.502;16.732;2023-04-01T19:25:48;10.27;;;4.37;;
72319;SDS011;60269;52.502;16.732;2023-04-01T19:33:46;8.90;;;2.70;;
72319;SDS011;60269;52.502;16.732;2023-04-01T19:46:44;13.23;;;3.63;;
72319;SDS011;60269;52.502;16.732;2023-04-01T19:50:38;12.07;;;3.17;;
72319;SDS011;60269;52.502;16.732;2023-04-01T20:06:41;7.20;;;2.63;;
72319;SDS011;60269;52.502;16.732;2023-04-01T20:10:33;12.48;;;3.38;;
72319;SDS011;60269;52.502;16.732;2023-04-01T20:14:36;8.73;;;2.60;;
72319;SDS011;60269;52.502;16.732;2023-04-01T20:19:06;10.60;;;3.13;;
72319;SDS011;60269;52.502;16.732;2023-04-01T20:26:29;9.30;;;2.47;;
72319;SDS011;60269;52.502;16.732;2023-04-01T20:30:21;8.33;;;2.93;;
72319;SDS011;60269;52.502;16.732;2023-04-01T20:34:36;7.53;;;2.60;;
72319;SDS011;60269;52.502;16.732;2023-04-01T20:38:34;8.35;;;2.80;;
72319;SDS011;60269;52.502;16.732;2023-04-01T20:42:42;9.50;;;3.33;;
72319;SDS011;60269;52.502;16.732;2023-04-01T20:46:23;8.17;;;2.80;;
72319;SDS011;60269;52.502;16.732;2023-04-01T20:50:34;10.02;;;3.38;;
72319;SDS011;60269;52.502;16.732;2023-04-01T20:58:20;11.50;;;3.53;;
72319;SDS011;60269;52.502;16.732;2023-04-01T21:06:03;11.20;;;4.70;;
72319;SDS011;60269;52.502;16.732;2023-04-01T21:14:24;11.15;;;4.32;;
72319;SDS011;60269;52.502;16.732;2023-04-01T22:05:06;11.80;;;4.47;;
72319;SDS011;60269;52.502;16.732;2023-04-01T22:08:55;13.05;;;4.45;;
72319;SDS011;60269;52.502;16.732;2023-04-01T22:16:24;17.27;;;4.87;;
72319;SDS011;60269;52.502;16.732;2023-04-01T22:23:57;10.82;;;2.75;;
72319;SDS011;60269;52.502;16.732;2023-04-01T22:27:41;9.90;;;3.53;;
72319;SDS011;60269;52.502;16.732;2023-04-01T22:31:23;11.68;;;3.00;;
72319;SDS011;60269;52.502;16.732;2023-04-01T22:46:20;8.70;;;3.10;;
72319;SDS011;60269;52.502;16.732;2023-04-01T22:53:56;9.70;;;3.30;;
72319;SDS011;60269;52.502;16.732;2023-04-01T22:57:48;7.88;;;2.47;;
72319;SDS011;60269;52.502;16.732;2023-04-01T23:01:25;10.77;;;3.08;;
72319;SDS011;60269;52.502;16.732;2023-04-01T23:05:03;8.23;;;2.33;;
72319;SDS011;60269;52.502;16.732;2023-04-01T23:12:55;9.88;;;2.40;;
72319;SDS011;60269;52.502;16.732;2023-04-01T23:16:41;8.55;;;2.60;;
72319;SDS011;60269;52.502;16.732;2023-04-01T23:24:28;9.07;;;2.72;;
72319;SDS011;60269;52.502;16.732;2023-04-01T23:36:11;5.90;;;1.80;;
72319;SDS011;60269;52.502;16.732;2023-04-01T23:39:45;6.70;;;2.17;;
72319;SDS011;60269;52.502;16.732;2023-04-01T23:43:24;6.80;;;2.03;;
72319;SDS011;60269;52.502;16.732;2023-04-01T23:46:59;6.78;;;1.88;;
72319;SDS011;60269;52.502;16.732;2023-04-01T23:50:33;7.78;;;2.05;;
